sensor_id;sensor_type;location;lat;lon;timestamp;temperature;humidity
72940;DHT22;61094;51.154;13.570;2023-10-19T00:00:15;7.90;91.70
72940;DHT22;61094;51.154;13.570;2023-10-19T00:05:24;7.90;91.20
72940;DHT22;61094;51.154;13.570;2023-10-19T00:10:27;8.00;91.10
72940;DHT22;61094;51.154;13.570;2023-10-19T00:15:35;8.10;90.80
72940;DHT22;61094;51.154;13.570;2023-10-19T00:20:40;8.10;90.80
72940;DHT22;61094;51.154;13.570;2023-10-19T00:25:51;8.10;90.50
72940;DHT22;61094;51.154;13.570;2023-10-19T00:30:55;8.10;90.60
72940;DHT22;61094;51.154;13.570;2023-10-19T00:36:09;8.10;90.80
72940;DHT22;61094;51.154;13.570;2023-10-19T00:41:13;8.10;90.80
72940;DHT22;61094;51.154;13.570;2023-10-19T00:46:22;8.10;91.30
72940;DHT22;61094;51.154;13.570;2023-10-19T00:51:35;8.00;91.30
72940;DHT22;61094;51.154;13.570;2023-10-19T00:56:50;8.00;91.20
72940;DHT22;61094;51.154;13.570;2023-10-19T01:01:55;8.00;91.20
72940;DHT22;61094;51.154;13.570;2023-10-19T01:07:05;8.00;91.40
72940;DHT22;61094;51.154;13.570;2023-10-19T01:12:12;8.00;91.80
72940;DHT22;61094;51.154;13.570;2023-10-19T01:17:36;8.00;91.50
72940;DHT22;61094;51.154;13.570;2023-10-19T01:22:47;8.00;91.20
72940;DHT22;61094;51.154;13.570;2023-10-19T01:27:49;8.10;91.00
72940;DHT22;61094;51.154;13.570;2023-10-19T01:32:57;8.10;91.10
72940;DHT22;61094;51.154;13.570;2023-10-19T01:38:01;8.10;91.10
72940;DHT22;61094;51.154;13.570;2023-10-19T01:43:03;8.20;91.30
72940;DHT22;61094;51.154;13.570;2023-10-19T01:48:06;8.20;91.10
72940;DHT22;61094;51.154;13.570;2023-10-19T01:53:11;8.20;91.00
72940;DHT22;61094;51.154;13.570;2023-10-19T01:58:15;8.30;90.80
72940;DHT22;61094;51.154;13.570;2023-10-19T02:03:17;8.30;90.90
72940;DHT22;61094;51.154;13.570;2023-10-19T02:08:23;8.30;90.90
72940;DHT22;61094;51.154;13.570;2023-10-19T02:13:27;8.30;91.30
72940;DHT22;61094;51.154;13.570;2023-10-19T02:18:28;8.40;90.90
72940;DHT22;61094;51.154;13.570;2023-10-19T02:23:32;8.40;90.90
72940;DHT22;61094;51.154;13.570;2023-10-19T02:28:35;8.40;91.10
72940;DHT22;61094;51.154;13.570;2023-10-19T02:33:39;8.40;91.00
72940;DHT22;61094;51.154;13.570;2023-10-19T02:38:43;8.40;91.20
72940;DHT22;61094;51.154;13.570;2023-10-19T02:43:49;8.40;90.90
72940;DHT22;61094;51.154;13.570;2023-10-19T02:49:01;8.40;91.20
72940;DHT22;61094;51.154;13.570;2023-10-19T02:54:08;8.40;91.40
72940;DHT22;61094;51.154;13.570;2023-10-19T02:59:16;8.50;91.20
72940;DHT22;61094;51.154;13.570;2023-10-19T03:04:22;8.50;91.30
72940;DHT22;61094;51.154;13.570;2023-10-19T03:09:27;8.50;91.30
72940;DHT22;61094;51.154;13.570;2023-10-19T03:14:30;8.50;91.70
72940;DHT22;61094;51.154;13.570;2023-10-19T03:19:32;8.50;92.00
72940;DHT22;61094;51.154;13.570;2023-10-19T03:24:36;8.50;92.90
72940;DHT22;61094;51.154;13.570;2023-10-19T03:29:41;8.40;95.30
72940;DHT22;61094;51.154;13.570;2023-10-19T03:34:47;8.30;97.60
72940;DHT22;61094;51.154;13.570;2023-10-19T03:39:52;8.20;99.80
72940;DHT22;61094;51.154;13.570;2023-10-19T03:44:56;8.00;99.90
72940;DHT22;61094;51.154;13.570;2023-10-19T03:50:00;7.90;99.90
72940;DHT22;61094;51.154;13.570;2023-10-19T03:55:07;7.80;99.90
72940;DHT22;61094;51.154;13.570;2023-10-19T04:00:12;7.60;99.90
72940;DHT22;61094;51.154;13.570;2023-10-19T04:05:17;7.50;99.90
72940;DHT22;61094;51.154;13.570;2023-10-19T04:10:22;7.40;99.90
72940;DHT22;61094;51.154;13.570;2023-10-19T04:15:39;7.40;99.90
72940;DHT22;61094;51.154;13.570;2023-10-19T04:20:42;7.30;99.90
72940;DHT22;61094;51.154;13.570;2023-10-19T04:25:56;7.20;99.90
72940;DHT22;61094;51.154;13.570;2023-10-19T04:30:58;7.10;99.90
72940;DHT22;61094;51.154;13.570;2023-10-19T04:36:03;6.90;99.90
72940;DHT22;61094;51.154;13.570;2023-10-19T04:41:10;6.80;99.90
72940;DHT22;61094;51.154;13.570;2023-10-19T04:46:12;6.70;99.90
72940;DHT22;61094;51.154;13.570;2023-10-19T04:51:14;6.60;99.90
72940;DHT22;61094;51.154;13.570;2023-10-19T04:56:22;6.50;99.90
72940;DHT22;61094;51.154;13.570;2023-10-19T05:01:26;6.40;99.90
72940;DHT22;61094;51.154;13.570;2023-10-19T05:06:28;6.30;99.90
72940;DHT22;61094;51.154;13.570;2023-10-19T05:11:31;6.30;99.90
72940;DHT22;61094;51.154;13.570;2023-10-19T05:16:33;6.20;99.90
72940;DHT22;61094;51.154;13.570;2023-10-19T05:21:35;6.20;99.90
72940;DHT22;61094;51.154;13.570;2023-10-19T05:26:38;6.20;99.90
72940;DHT22;61094;51.154;13.570;2023-10-19T05:31:40;6.20;99.90
72940;DHT22;61094;51.154;13.570;2023-10-19T05:36:41;6.20;99.90
72940;DHT22;61094;51.154;13.570;2023-10-19T05:41:50;6.10;99.90
72940;DHT22;61094;51.154;13.570;2023-10-19T05:46:52;6.20;99.90
72940;DHT22;61094;51.154;13.570;2023-10-19T05:51:55;6.10;99.90
72940;DHT22;61094;51.154;13.570;2023-10-19T05:56:59;6.10;99.90
72940;DHT22;61094;51.154;13.570;2023-10-19T06:02:00;6.10;99.90
72940;DHT22;61094;51.154;13.570;2023-10-19T06:07:02;6.10;99.90
72940;DHT22;61094;51.154;13.570;2023-10-19T06:12:13;6.10;99.90
72940;DHT22;61094;51.154;13.570;2023-10-19T06:17:15;6.10;99.90
72940;DHT22;61094;51.154;13.570;2023-10-19T06:22:20;6.10;99.90
72940;DHT22;61094;51.154;13.570;2023-10-19T06:27:47;6.10;99.90
72940;DHT22;61094;51.154;13.570;2023-10-19T06:32:59;6.10;99.90
72940;DHT22;61094;51.154;13.570;2023-10-19T06:38:01;6.20;99.90
72940;DHT22;61094;51.154;13.570;2023-10-19T06:43:13;6.10;99.90
72940;DHT22;61094;51.154;13.570;2023-10-19T06:48:15;6.10;99.90
72940;DHT22;61094;51.154;13.570;2023-10-19T06:53:17;6.10;99.90
72940;DHT22;61094;51.154;13.570;2023-10-19T06:58:20;6.20;99.90
72940;DHT22;61094;51.154;13.570;2023-10-19T07:03:26;6.20;99.90
72940;DHT22;61094;51.154;13.570;2023-10-19T07:08:30;6.20;99.90
72940;DHT22;61094;51.154;13.570;2023-10-19T07:13:33;6.20;99.90
72940;DHT22;61094;51.154;13.570;2023-10-19T07:18:34;6.20;99.90
72940;DHT22;61094;51.154;13.570;2023-10-19T07:23:37;6.20;99.90
72940;DHT22;61094;51.154;13.570;2023-10-19T07:28:42;6.20;99.90
72940;DHT22;61094;51.154;13.570;2023-10-19T07:33:44;6.20;99.90
72940;DHT22;61094;51.154;13.570;2023-10-19T07:38:47;6.20;99.90
72940;DHT22;61094;51.154;13.570;2023-10-19T07:43:50;6.20;99.90
72940;DHT22;61094;51.154;13.570;2023-10-19T07:48:52;6.20;99.90
72940;DHT22;61094;51.154;13.570;2023-10-19T07:53:54;6.20;99.90
72940;DHT22;61094;51.154;13.570;2023-10-19T07:58:57;6.20;99.90
72940;DHT22;61094;51.154;13.570;2023-10-19T08:03:58;6.20;99.90
72940;DHT22;61094;51.154;13.570;2023-10-19T08:09:01;6.20;99.90
72940;DHT22;61094;51.154;13.570;2023-10-19T08:14:06;6.30;99.90
72940;DHT22;61094;51.154;13.570;2023-10-19T08:19:09;6.30;99.90
72940;DHT22;61094;51.154;13.570;2023-10-19T08:24:17;6.30;99.90
72940;DHT22;61094;51.154;13.570;2023-10-19T08:29:20;6.30;99.90
72940;DHT22;61094;51.154;13.570;2023-10-19T08:34:22;6.40;99.90
72940;DHT22;61094;51.154;13.570;2023-10-19T08:39:26;6.40;99.90
72940;DHT22;61094;51.154;13.570;2023-10-19T08:44:29;6.40;99.90
72940;DHT22;61094;51.154;13.570;2023-10-19T08:49:31;6.40;99.90
72940;DHT22;61094;51.154;13.570;2023-10-19T08:54:32;6.50;99.90
72940;DHT22;61094;51.154;13.570;2023-10-19T08:59:36;6.50;99.90
72940;DHT22;61094;51.154;13.570;2023-10-19T09:04:42;6.50;99.90
72940;DHT22;61094;51.154;13.570;2023-10-19T09:09:45;6.50;99.90
72940;DHT22;61094;51.154;13.570;2023-10-19T09:14:50;6.60;99.90
72940;DHT22;61094;51.154;13.570;2023-10-19T09:19:52;6.60;99.90
72940;DHT22;61094;51.154;13.570;2023-10-19T09:24:57;6.70;99.90
72940;DHT22;61094;51.154;13.570;2023-10-19T09:30:09;6.80;99.90
72940;DHT22;61094;51.154;13.570;2023-10-19T09:35:17;6.90;99.90
72940;DHT22;61094;51.154;13.570;2023-10-19T09:40:21;7.10;99.90
72940;DHT22;61094;51.154;13.570;2023-10-19T09:45:30;7.20;99.90
72940;DHT22;61094;51.154;13.570;2023-10-19T09:50:33;7.20;99.90
72940;DHT22;61094;51.154;13.570;2023-10-19T09:55:38;7.30;99.90
72940;DHT22;61094;51.154;13.570;2023-10-19T10:00:44;7.50;99.90
72940;DHT22;61094;51.154;13.570;2023-10-19T10:05:47;7.60;99.90
72940;DHT22;61094;51.154;13.570;2023-10-19T10:10:51;7.70;99.90
72940;DHT22;61094;51.154;13.570;2023-10-19T10:15:55;7.80;99.90
72940;DHT22;61094;51.154;13.570;2023-10-19T10:21:05;7.80;99.90
72940;DHT22;61094;51.154;13.570;2023-10-19T10:26:09;7.70;99.90
72940;DHT22;61094;51.154;13.570;2023-10-19T10:31:14;7.70;99.90
72940;DHT22;61094;51.154;13.570;2023-10-19T10:36:17;7.80;99.90
72940;DHT22;61094;51.154;13.570;2023-10-19T10:41:20;7.90;99.90
72940;DHT22;61094;51.154;13.570;2023-10-19T10:46:25;8.00;99.90
72940;DHT22;61094;51.154;13.570;2023-10-19T10:51:28;8.20;99.90
72940;DHT22;61094;51.154;13.570;2023-10-19T10:56:30;8.30;99.90
72940;DHT22;61094;51.154;13.570;2023-10-19T11:01:33;8.40;99.90
72940;DHT22;61094;51.154;13.570;2023-10-19T11:06:47;8.40;99.90
72940;DHT22;61094;51.154;13.570;2023-10-19T11:11:49;8.50;99.90
72940;DHT22;61094;51.154;13.570;2023-10-19T11:16:54;8.50;99.90
72940;DHT22;61094;51.154;13.570;2023-10-19T11:21:56;8.50;99.90
72940;DHT22;61094;51.154;13.570;2023-10-19T11:26:59;8.60;99.90
72940;DHT22;61094;51.154;13.570;2023-10-19T11:32:03;8.80;99.90
72940;DHT22;61094;51.154;13.570;2023-10-19T11:37:06;8.90;99.90
72940;DHT22;61094;51.154;13.570;2023-10-19T11:42:08;8.90;99.90
72940;DHT22;61094;51.154;13.570;2023-10-19T11:47:12;8.90;99.90
72940;DHT22;61094;51.154;13.570;2023-10-19T11:52:15;8.90;99.90
72940;DHT22;61094;51.154;13.570;2023-10-19T11:57:17;8.90;99.90
72940;DHT22;61094;51.154;13.570;2023-10-19T12:02:21;8.90;99.90
72940;DHT22;61094;51.154;13.570;2023-10-19T12:07:23;8.90;99.90
72940;DHT22;61094;51.154;13.570;2023-10-19T12:12:25;8.90;99.90
72940;DHT22;61094;51.154;13.570;2023-10-19T12:17:29;8.90;99.90
72940;DHT22;61094;51.154;13.570;2023-10-19T12:22:39;8.90;99.90
72940;DHT22;61094;51.154;13.570;2023-10-19T12:27:47;8.90;99.90
72940;DHT22;61094;51.154;13.570;2023-10-19T12:32:52;9.00;99.90
72940;DHT22;61094;51.154;13.570;2023-10-19T12:37:55;9.00;99.90
72940;DHT22;61094;51.154;13.570;2023-10-19T12:42:57;9.10;99.90
72940;DHT22;61094;51.154;13.570;2023-10-19T12:48:06;9.10;99.90
72940;DHT22;61094;51.154;13.570;2023-10-19T12:53:08;9.10;99.90
72940;DHT22;61094;51.154;13.570;2023-10-19T12:58:10;9.20;99.90
72940;DHT22;61094;51.154;13.570;2023-10-19T13:03:15;9.40;99.90
72940;DHT22;61094;51.154;13.570;2023-10-19T13:08:43;9.50;99.90
72940;DHT22;61094;51.154;13.570;2023-10-19T13:20:13;9.90;99.90
72940;DHT22;61094;51.154;13.570;2023-10-19T13:25:18;10.00;99.90
72940;DHT22;61094;51.154;13.570;2023-10-19T13:30:55;10.20;99.90
72940;DHT22;61094;51.154;13.570;2023-10-19T13:35:58;10.30;99.90
72940;DHT22;61094;51.154;13.570;2023-10-19T13:41:03;10.40;99.90
72940;DHT22;61094;51.154;13.570;2023-10-19T13:46:08;10.60;99.90
72940;DHT22;61094;51.154;13.570;2023-10-19T13:51:15;10.70;99.90
72940;DHT22;61094;51.154;13.570;2023-10-19T13:56:17;10.80;99.90
72940;DHT22;61094;51.154;13.570;2023-10-19T14:01:18;10.80;99.90
72940;DHT22;61094;51.154;13.570;2023-10-19T14:06:26;10.70;99.90
72940;DHT22;61094;51.154;13.570;2023-10-19T14:11:28;10.50;99.90
72940;DHT22;61094;51.154;13.570;2023-10-19T14:16:30;10.40;99.90
72940;DHT22;61094;51.154;13.570;2023-10-19T14:21:33;10.30;99.90
72940;DHT22;61094;51.154;13.570;2023-10-19T14:26:38;10.20;99.90
72940;DHT22;61094;51.154;13.570;2023-10-19T14:31:41;10.20;99.90
72940;DHT22;61094;51.154;13.570;2023-10-19T14:36:44;10.20;99.90
72940;DHT22;61094;51.154;13.570;2023-10-19T14:41:45;10.10;99.90
72940;DHT22;61094;51.154;13.570;2023-10-19T14:46:47;10.00;99.90
72940;DHT22;61094;51.154;13.570;2023-10-19T14:51:50;10.00;99.90
72940;DHT22;61094;51.154;13.570;2023-10-19T14:56:52;9.90;99.90
72940;DHT22;61094;51.154;13.570;2023-10-19T15:01:59;9.90;99.90
72940;DHT22;61094;51.154;13.570;2023-10-19T15:07:28;9.90;99.90
72940;DHT22;61094;51.154;13.570;2023-10-19T15:12:38;9.90;99.90
72940;DHT22;61094;51.154;13.570;2023-10-19T15:17:41;9.90;99.90
72940;DHT22;61094;51.154;13.570;2023-10-19T15:23:24;9.80;99.90
72940;DHT22;61094;51.154;13.570;2023-10-19T15:29:05;9.90;99.90
72940;DHT22;61094;51.154;13.570;2023-10-19T15:35:29;9.80;99.90
72940;DHT22;61094;51.154;13.570;2023-10-19T15:48:13;9.80;99.90
72940;DHT22;61094;51.154;13.570;2023-10-19T15:53:15;9.70;99.90
72940;DHT22;61094;51.154;13.570;2023-10-19T15:58:17;9.70;99.90
72940;DHT22;61094;51.154;13.570;2023-10-19T16:03:23;9.60;99.90
72940;DHT22;61094;51.154;13.570;2023-10-19T16:08:24;9.50;99.90
72940;DHT22;61094;51.154;13.570;2023-10-19T16:13:26;9.40;99.90
72940;DHT22;61094;51.154;13.570;2023-10-19T16:18:29;9.40;99.90
72940;DHT22;61094;51.154;13.570;2023-10-19T16:23:31;9.40;99.90
72940;DHT22;61094;51.154;13.570;2023-10-19T16:28:34;9.30;99.90
72940;DHT22;61094;51.154;13.570;2023-10-19T16:33:42;9.30;99.90
72940;DHT22;61094;51.154;13.570;2023-10-19T16:38:50;9.20;99.90
72940;DHT22;61094;51.154;13.570;2023-10-19T16:44:15;9.20;99.90
72940;DHT22;61094;51.154;13.570;2023-10-19T16:49:44;9.20;99.90
72940;DHT22;61094;51.154;13.570;2023-10-19T16:54:51;9.10;99.90
72940;DHT22;61094;51.154;13.570;2023-10-19T17:00:02;9.10;99.90
72940;DHT22;61094;51.154;13.570;2023-10-19T17:11:50;9.00;99.90
72940;DHT22;61094;51.154;13.570;2023-10-19T17:16:53;9.00;99.90
72940;DHT22;61094;51.154;13.570;2023-10-19T17:22:00;8.90;99.90
72940;DHT22;61094;51.154;13.570;2023-10-19T17:33:35;8.90;99.90
72940;DHT22;61094;51.154;13.570;2023-10-19T17:58:45;8.90;99.90
72940;DHT22;61094;51.154;13.570;2023-10-19T18:03:48;8.90;99.90
72940;DHT22;61094;51.154;13.570;2023-10-19T18:09:06;8.90;99.90
72940;DHT22;61094;51.154;13.570;2023-10-19T18:14:10;8.90;99.90
72940;DHT22;61094;51.154;13.570;2023-10-19T18:19:14;8.80;99.90
72940;DHT22;61094;51.154;13.570;2023-10-19T18:24:16;8.80;99.90
72940;DHT22;61094;51.154;13.570;2023-10-19T18:29:20;8.80;99.90
72940;DHT22;61094;51.154;13.570;2023-10-19T18:34:22;8.80;99.90
72940;DHT22;61094;51.154;13.570;2023-10-19T18:39:26;8.80;99.90
72940;DHT22;61094;51.154;13.570;2023-10-19T18:44:31;8.80;99.90
72940;DHT22;61094;51.154;13.570;2023-10-19T18:56:07;8.80;99.90
72940;DHT22;61094;51.154;13.570;2023-10-19T19:01:10;8.80;99.90
72940;DHT22;61094;51.154;13.570;2023-10-19T19:06:12;8.80;99.90
72940;DHT22;61094;51.154;13.570;2023-10-19T19:11:15;8.80;99.90
72940;DHT22;61094;51.154;13.570;2023-10-19T19:16:20;8.70;99.90
72940;DHT22;61094;51.154;13.570;2023-10-19T19:21:22;8.80;99.90
72940;DHT22;61094;51.154;13.570;2023-10-19T19:26:24;8.70;99.90
72940;DHT22;61094;51.154;13.570;2023-10-19T19:31:28;8.70;99.90
72940;DHT22;61094;51.154;13.570;2023-10-19T19:36:29;8.70;99.90
72940;DHT22;61094;51.154;13.570;2023-10-19T19:41:31;8.70;99.90
72940;DHT22;61094;51.154;13.570;2023-10-19T19:46:34;8.70;99.90
72940;DHT22;61094;51.154;13.570;2023-10-19T19:51:36;8.70;99.90
72940;DHT22;61094;51.154;13.570;2023-10-19T19:56:40;8.80;99.90
72940;DHT22;61094;51.154;13.570;2023-10-19T20:01:44;8.70;99.90
72940;DHT22;61094;51.154;13.570;2023-10-19T20:06:47;8.80;99.90
72940;DHT22;61094;51.154;13.570;2023-10-19T20:11:49;8.80;99.90
72940;DHT22;61094;51.154;13.570;2023-10-19T20:16:52;8.80;99.90
72940;DHT22;61094;51.154;13.570;2023-10-19T20:22:03;8.80;99.90
72940;DHT22;61094;51.154;13.570;2023-10-19T20:27:05;8.70;99.90
72940;DHT22;61094;51.154;13.570;2023-10-19T20:32:10;8.80;99.90
72940;DHT22;61094;51.154;13.570;2023-10-19T20:37:16;8.80;99.90
72940;DHT22;61094;51.154;13.570;2023-10-19T20:42:22;8.80;99.90
72940;DHT22;61094;51.154;13.570;2023-10-19T20:47:29;8.70;99.90
72940;DHT22;61094;51.154;13.570;2023-10-19T20:52:49;8.80;99.90
72940;DHT22;61094;51.154;13.570;2023-10-19T20:57:51;8.80;99.90
72940;DHT22;61094;51.154;13.570;2023-10-19T21:02:55;8.80;99.90
72940;DHT22;61094;51.154;13.570;2023-10-19T21:07:57;8.80;99.90
72940;DHT22;61094;51.154;13.570;2023-10-19T21:13:06;8.70;99.90
72940;DHT22;61094;51.154;13.570;2023-10-19T21:18:16;8.80;99.90
72940;DHT22;61094;51.154;13.570;2023-10-19T21:23:22;8.70;99.90
72940;DHT22;61094;51.154;13.570;2023-10-19T21:28:34;8.70;99.90
72940;DHT22;61094;51.154;13.570;2023-10-19T21:33:38;8.80;99.90
72940;DHT22;61094;51.154;13.570;2023-10-19T21:38:39;8.70;99.90
72940;DHT22;61094;51.154;13.570;2023-10-19T21:43:41;8.70;99.90
72940;DHT22;61094;51.154;13.570;2023-10-19T21:48:45;8.70;99.90
72940;DHT22;61094;51.154;13.570;2023-10-19T21:53:49;8.70;99.90
72940;DHT22;61094;51.154;13.570;2023-10-19T21:58:51;8.70;99.90
72940;DHT22;61094;51.154;13.570;2023-10-19T22:03:54;8.70;99.90
72940;DHT22;61094;51.154;13.570;2023-10-19T22:08:56;8.80;99.90
72940;DHT22;61094;51.154;13.570;2023-10-19T22:13:58;8.80;99.90
72940;DHT22;61094;51.154;13.570;2023-10-19T22:19:01;8.70;99.90
72940;DHT22;61094;51.154;13.570;2023-10-19T22:24:02;8.70;99.90
72940;DHT22;61094;51.154;13.570;2023-10-19T22:29:04;8.70;99.90
72940;DHT22;61094;51.154;13.570;2023-10-19T22:34:08;8.70;99.90
72940;DHT22;61094;51.154;13.570;2023-10-19T22:39:13;8.70;99.90
72940;DHT22;61094;51.154;13.570;2023-10-19T22:44:15;8.70;99.90
72940;DHT22;61094;51.154;13.570;2023-10-19T22:49:18;8.70;99.90
72940;DHT22;61094;51.154;13.570;2023-10-19T22:54:20;8.70;99.90
72940;DHT22;61094;51.154;13.570;2023-10-19T22:59:22;8.70;99.90
72940;DHT22;61094;51.154;13.570;2023-10-19T23:04:26;8.70;99.90
72940;DHT22;61094;51.154;13.570;2023-10-19T23:09:28;8.80;99.90
72940;DHT22;61094;51.154;13.570;2023-10-19T23:14:32;8.80;99.90
72940;DHT22;61094;51.154;13.570;2023-10-19T23:19:35;8.80;99.90
72940;DHT22;61094;51.154;13.570;2023-10-19T23:24:40;8.80;99.90
72940;DHT22;61094;51.154;13.570;2023-10-19T23:29:44;8.80;99.90
72940;DHT22;61094;51.154;13.570;2023-10-19T23:34:48;8.80;99.90
72940;DHT22;61094;51.154;13.570;2023-10-19T23:39:50;8.80;99.90
72940;DHT22;61094;51.154;13.570;2023-10-19T23:44:51;8.80;99.90
72940;DHT22;61094;51.154;13.570;2023-10-19T23:49:55;8.80;99.90
72940;DHT22;61094;51.154;13.570;2023-10-19T23:54:56;8.80;99.90
72940;DHT22;61094;51.154;13.570;2023-10-19T23:59:58;8.80;99.90
